Armington, Illinois
Current Conditions -  °F | °C
As of 4:35 AM on Thursday 27 Nov 2014 (Local Time) from KAAA Reporting Station
Overcast Overcast  
Wind Chill: 25°   Ceiling: 9000
Heat Index: 25°   Visibility: 7mi
Dew Point: 21°   Wind: 0mph
Humidity: 85%   Direction: NA
Pressure: 30.35"   Gusts: NA
Location:  40.34°N, 89.31°W
Report Text: KAAA 271035Z AUTO 00000KT 7SM SCT017 OVC090 M04/M06 A3035 RMK AO2 T10381060
Loading
Personal Weather Stations






























Interactive Weather Map New forecast layout! Learn more

10-Day Weather Forecast

Advertisements
Track Severe Weather on mobile